Flight Track Log - Related Links

Times and Time Zones

All times are in EDT time to prevent confusion due to time zone crossing. See the DAL3721 flight status page for this flight to view local times or setup timezone preferences in your user account.

Time Position Orientation Groundspeed Altitude Reporting Facility
EDT Latitude Longitude Course Direction KTS MPH feet Rate Location/Type
Sat 01:22:08 PM 33.6500 -84.4000 234° Southwest 144 166 2,100  Level Atlanta TRACON
Sat 01:23:14 PM 33.6667 -84.3333 73° East 233 268 3,400 1,714 Climbing Atlanta TRACON
Sat 01:24:14 PM 33.7167 -84.2833 40° Northeast 294 338 5,700 2,810 Climbing Atlanta TRACON
Sat 01:25:00 PM 33.8001 -84.4705 270° West  Level FlightAware Approximate
Sat 01:25:20 PM 33.8000 -84.3000 351° North 283 326 9,300  Level Atlanta TRACON
Sat 01:26:00 PM 33.7855 -84.5956 239° Southwest  Level FlightAware Approximate
Sat 01:27:00 PM 33.7217 -84.7004 234° Southwest  Level FlightAware Approximate
Sat 01:27:29 PM 33.8100 -84.4989 274° West 299 344 12,600  Level Atlanta Center
Sat 01:28:29 PM 33.7992 -84.6039 263° West 322 371 14,700 1,950 Climbing Atlanta Center
Sat 01:29:29 PM 33.7425 -84.6933 233° Southwest 315 362 16,500 1,650 Climbing Atlanta Center
Sat 01:30:29 PM 33.6856 -84.7803 232° Southwest 327 376 18,000 1,300 Climbing Atlanta Center
Sat 01:31:29 PM 33.6306 -84.8869 238° Southwest 346 398 19,100 1,050 Climbing Atlanta Center
Sat 01:32:29 PM 33.5922 -84.9964 247° West 351 404 20,100 1,000 Climbing Atlanta Center
Sat 01:33:29 PM 33.5539 -85.1031 247° West 351 404 21,100 1,050 Climbing Atlanta Center
Sat 01:34:29 PM 33.5172 -85.2150 249° West 357 411 22,200 1,050 Climbing Atlanta Center
Sat 01:35:29 PM 33.4953 -85.3317 257° West 368 423 23,200 1,000 Climbing Atlanta Center
Sat 01:36:29 PM 33.4753 -85.4533 259° West 368 423 24,200 1,000 Climbing Atlanta Center
Sat 01:37:29 PM 33.4569 -85.5700 259° West 368 423 25,200 900 Climbing Atlanta Center
Sat 01:38:29 PM 33.4411 -85.6744 260° West 368 423 26,000 400 Climbing Atlanta Center
Sat 01:39:29 PM 33.4225 -85.8108 261° West 373 429 26,000  Level Atlanta Center
Sat 01:40:29 PM 33.3997 -85.9350 258° West 373 429 26,000  Level Atlanta Center
Sat 01:41:29 PM 33.3792 -86.0564 259° West 388 447 26,000  Level Atlanta Center
Sat 01:42:29 PM 33.3581 -86.1900 259° West 400 460 26,000  Level Atlanta Center
Sat 01:43:29 PM 33.3369 -86.3214 259° West 405 466 26,000  Level Atlanta Center
Sat 01:44:29 PM 33.3158 -86.4403 258° West 410 472 26,000  Level Atlanta Center
Sat 01:45:29 PM 33.2942 -86.5836 260° West 410 472 26,000  Level Atlanta Center
Sat 01:46:29 PM 33.2725 -86.7172 259° West 415 478 26,000  Level Atlanta Center
Sat 01:47:29 PM 33.2486 -86.8531 258° West 410 472 26,000  Level Atlanta Center
Sat 01:48:29 PM 33.2186 -86.9786 254° West 410 472 26,000  Level Atlanta Center
Sat 01:49:29 PM 33.1658 -87.0886 240° Southwest 410 472 26,000  Level Atlanta Center
Sat 01:50:29 PM 33.1128 -87.2058 242° Southwest 410 472 26,000  Level Atlanta Center
Sat 01:51:29 PM 33.0575 -87.3253 241° Southwest 415 478 26,000  Level Atlanta Center
Sat 01:53:09 PM 32.9614 -87.5397 242° Southwest 417 480 26,000  Level Memphis Center
Sat 01:54:09 PM 32.9056 -87.6603 241° Southwest 412 474 26,000  Level Memphis Center
Sat 01:55:09 PM 32.8519 -87.7831 243° Southwest 417 480 26,000  Level Memphis Center
Sat 01:56:09 PM 32.8058 -87.8783 240° Southwest 417 480 26,000  Level Memphis Center
Sat 01:57:09 PM 32.7439 -88.0256 243° Southwest 417 480 26,000  Level Memphis Center
Sat 01:58:09 PM 32.6897 -88.1431 241° Southwest 412 474 26,000  Level Memphis Center
Sat 01:59:09 PM 32.6356 -88.2628 242° Southwest 417 480 26,000  Level Memphis Center
Sat 02:00:09 PM 32.5831 -88.3725 240° Southwest 422 486 26,000  Level Memphis Center
Sat 02:01:09 PM 32.5264 -88.4897 240° Southwest 422 486 26,000  Level Memphis Center
Sat 02:02:09 PM 32.4717 -88.6064 241° Southwest 422 486 26,000  Level Memphis Center
Sat 02:03:09 PM 32.4189 -88.7256 242° Southwest 422 486 26,000  Level Memphis Center
Sat 02:04:09 PM 32.3767 -88.8494 248° West 416 479 26,000  Level Memphis Center
Sat 02:05:09 PM 32.3886 -88.9819 276° West 399 459 26,000  Level Memphis Center
Sat 02:06:09 PM 32.3964 -89.1197 274° West 404 465 26,000  Level Memphis Center
Sat 02:07:09 PM 32.4039 -89.2550 274° West 409 471 26,000  Level Memphis Center
Sat 02:08:09 PM 32.4114 -89.3878 274° West 409 471 26,000  Level Memphis Center
Sat 02:09:09 PM 32.4164 -89.5206 273° West 409 471 26,000  Level Memphis Center
Sat 02:10:09 PM 32.4236 -89.6558 274° West 409 471 26,000  Level Memphis Center
Sat 02:11:09 PM 32.4306 -89.7886 274° West 409 471 26,000  Level Memphis Center
Sat 02:12:09 PM 32.4372 -89.9217 273° West 409 471 26,000  Level Memphis Center
Sat 02:13:09 PM 32.4419 -90.0569 272° West 409 471 26,000  Level Memphis Center
Sat 02:14:09 PM 32.4483 -90.1875 273° West 409 471 26,000  Level Memphis Center
Sat 02:15:09 PM 32.4547 -90.3178 273° West 404 465 26,000 -550 Level Memphis Center
Sat 02:16:09 PM 32.4589 -90.4483 272° West 404 465 24,900 -1,550 Descending Memphis Center
Sat 02:17:09 PM 32.4650 -90.5764 273° West 404 465 22,900 -1,950 Descending Memphis Center
Sat 02:18:09 PM 32.4711 -90.6947 274° West 391 450 21,000 -1,850 Descending Memphis Center
Sat 02:19:09 PM 32.4750 -90.8056 272° West 361 415 19,200 -1,600 Descending Memphis Center
Sat 02:20:09 PM 32.4786 -90.9139 272° West 341 392 17,800 -1,650 Descending Memphis Center
Sat 02:21:09 PM 32.4822 -91.0247 272° West 341 392 15,900 -1,900 Descending Memphis Center
Sat 02:23:00 PM 32.4834 -91.2440 270° West  Level FlightAware Approximate
Sat 02:30:00 PM 32.5000 -92.0333 180° South  Level FlightAware Approximate
Sat 02:31:00 PM 32.5109 -92.0377 180° South  Level Estimated
Sat 02:32:00 PM 32.5109 -92.0377 180° South  Level Estimated
Sat 02:33:00 PM 32.5109 -92.0377 180° South  Level Estimated
Sat 02:34:00 PM 32.5109 -92.0377 180° South  Level Estimated

Login

Don't have an account? Register now (free) for customized features, flight alerts, and more!